createdAt,value
2023-03-29T05:17:48.955Z,8.35
2023-03-29T05:22:51.153Z,5.47
2023-03-29T05:27:53.207Z,7.68
2023-03-29T05:32:55.369Z,8.10
2023-03-29T05:37:58.244Z,9.23
2023-03-29T05:43:02.498Z,10.73
2023-03-29T05:48:05.466Z,5.25
2023-03-29T05:53:08.041Z,6.70
2023-03-29T05:58:12.302Z,4.67
2023-03-29T06:03:21.534Z,5.70
2023-03-29T06:08:24.555Z,3.85
2023-03-29T06:13:27.914Z,5.13
2023-03-29T06:18:30.296Z,8.10
2023-03-29T06:23:32.468Z,5.68
2023-03-29T06:28:34.592Z,8.73
2023-03-29T06:33:38.113Z,6.30
2023-03-29T06:38:40.328Z,5.57
2023-03-29T06:43:42.545Z,4.87
2023-03-29T06:48:45.084Z,6.27
2023-03-29T06:53:47.147Z,6.57
2023-03-29T06:58:51.573Z,6.62
2023-03-29T07:03:54.421Z,7.17
2023-03-29T07:08:59.785Z,5.20
2023-03-29T07:14:05.380Z,5.32
2023-03-29T07:19:09.201Z,5.23
2023-03-29T07:24:11.449Z,3.90
2023-03-29T07:29:13.635Z,4.72
2023-03-29T07:34:17.497Z,5.17
2023-03-29T07:39:20.444Z,4.00
2023-03-29T07:44:23.426Z,3.62
2023-03-29T07:49:25.798Z,3.15
2023-03-29T07:54:27.939Z,2.80
2023-03-29T07:59:30.354Z,3.55
2023-03-29T08:04:32.575Z,3.75
2023-03-29T08:09:34.799Z,4.80
2023-03-29T08:14:37.082Z,3.70
2023-03-29T08:19:39.183Z,2.55
2023-03-29T08:24:41.655Z,2.90
2023-03-29T08:29:43.781Z,4.37
2023-03-29T08:34:46.822Z,2.95
2023-03-29T08:39:48.886Z,2.95
2023-03-29T08:45:11.542Z,2.67
2023-03-29T08:50:14.703Z,2.95
2023-03-29T08:55:27.010Z,3.30
2023-03-29T09:00:42.915Z,3.40
2023-03-29T09:05:49.009Z,3.87
2023-03-29T09:11:07.105Z,4.15
2023-03-29T09:16:18.279Z,4.40
2023-03-29T09:21:29.857Z,4.93
2023-03-29T09:26:41.828Z,3.25
2023-03-29T09:31:44.817Z,2.80
2023-03-29T09:36:56.769Z,2.73
2023-03-29T09:42:05.428Z,3.00
2023-03-29T09:47:55.225Z,2.97
2023-03-29T09:52:57.470Z,2.97
2023-03-29T09:58:12.908Z,5.82
2023-03-29T10:03:26.237Z,3.20
2023-03-29T10:08:31.337Z,4.87
2023-03-29T10:13:35.625Z,3.27
2023-03-29T10:18:42.761Z,2.85
2023-03-29T10:23:44.931Z,3.28
2023-03-29T10:28:47.132Z,3.33
2023-03-29T10:33:57.397Z,3.10
2023-03-29T10:39:05.117Z,5.10
2023-03-29T10:44:26.540Z,3.07
2023-03-29T10:49:28.700Z,4.68
2023-03-29T10:54:31.229Z,3.55
2023-03-29T10:59:47.702Z,3.33
2023-03-29T11:04:56.707Z,3.00
2023-03-29T11:10:04.827Z,3.60
2023-03-29T11:15:17.762Z,3.65
2023-03-29T11:20:31.131Z,3.77
2023-03-29T11:26:05.024Z,4.12
2023-03-29T11:31:21.361Z,4.95
2023-03-29T11:36:41.820Z,5.43
2023-03-29T11:41:48.140Z,4.65
2023-03-29T11:46:59.515Z,4.78
2023-03-29T11:52:17.627Z,4.33
2023-03-29T11:57:31.368Z,3.93
2023-03-29T12:02:46.288Z,2.35
2023-03-29T12:08:01.518Z,4.15
2023-03-29T12:13:15.066Z,5.20
2023-03-29T12:18:30.346Z,3.67
2023-03-29T12:23:33.520Z,5.60
2023-03-29T12:28:50.352Z,4.07
2023-03-29T12:34:14.756Z,3.35
2023-03-29T12:39:19.867Z,2.50
2023-03-29T12:44:23.936Z,8.03
2023-03-29T12:49:35.952Z,3.90
2023-03-29T12:54:38.071Z,4.95
2023-03-29T12:59:46.174Z,3.90
2023-03-29T13:04:55.321Z,3.77
2023-03-29T13:10:03.414Z,4.80
2023-03-29T13:15:21.542Z,4.18
2023-03-29T13:20:23.590Z,4.10
2023-03-29T13:25:45.106Z,5.10
2023-03-29T13:31:02.572Z,5.00
2023-03-29T13:36:16.528Z,5.07
2023-03-29T13:41:31.827Z,4.73
2023-03-29T13:46:37.561Z,5.15
2023-03-29T13:51:42.867Z,3.42
2023-03-29T13:57:11.082Z,3.97
2023-03-29T14:02:53.767Z,4.85
2023-03-29T14:07:56.755Z,3.83
2023-03-29T14:13:04.479Z,4.00
2023-03-29T14:18:12.079Z,4.03
2023-03-29T14:23:20.126Z,5.57
2023-03-29T14:28:27.954Z,4.37
2023-03-29T14:33:34.558Z,4.53
2023-03-29T14:38:37.849Z,3.62
2023-03-29T14:43:40.775Z,4.68
2023-03-29T14:48:44.048Z,5.27
2023-03-29T14:53:48.200Z,5.07
2023-03-29T14:58:54.910Z,6.18
2023-03-29T15:04:03.314Z,3.50
2023-03-29T15:09:06.957Z,6.87
2023-03-29T15:14:15.619Z,6.28
2023-03-29T15:19:21.370Z,4.60
2023-03-29T15:24:29.394Z,6.57
2023-03-29T15:29:40.718Z,6.00
2023-03-29T15:34:42.769Z,5.95
2023-03-29T15:39:44.821Z,3.90
2023-03-29T15:44:46.924Z,6.72
2023-03-29T15:49:49.250Z,5.05
2023-03-29T15:54:51.509Z,5.40
2023-03-29T15:59:53.662Z,4.90
2023-03-29T16:04:55.918Z,6.07
2023-03-29T16:09:58.088Z,4.20
2023-03-29T16:15:00.366Z,7.27
2023-03-29T16:20:04.865Z,6.47
2023-03-29T16:25:13.496Z,4.62
2023-03-29T16:30:16.087Z,5.00
2023-03-29T16:35:27.791Z,5.12
2023-03-29T16:40:30.035Z,6.87
2023-03-29T16:45:32.200Z,4.90
2023-03-29T16:50:34.450Z,6.53
2023-03-29T16:55:38.139Z,4.12
2023-03-29T17:00:40.956Z,7.77
2023-03-29T17:05:53.071Z,14.00
2023-03-29T17:10:55.687Z,18.87
2023-03-29T17:15:57.944Z,30.37
2023-03-29T17:21:00.197Z,15.20
2023-03-29T17:26:02.586Z,8.77
2023-03-29T17:31:09.566Z,5.15
2023-03-29T17:36:11.941Z,5.47
2023-03-29T17:41:14.190Z,5.93
2023-03-29T17:46:18.130Z,5.90
2023-03-29T17:51:20.797Z,4.87
2023-03-29T17:56:23.332Z,2.70
2023-03-29T18:01:25.613Z,3.60
2023-03-29T18:06:27.877Z,5.22
2023-03-29T18:11:30.071Z,3.73
2023-03-29T18:16:32.262Z,1.73
2023-03-29T18:21:34.525Z,2.83
2023-03-29T18:26:36.609Z,2.37
2023-03-29T18:31:38.763Z,3.30
2023-03-29T18:36:40.974Z,2.72
2023-03-29T18:41:43.090Z,3.60
2023-03-29T18:46:45.514Z,2.17
2023-03-29T18:51:48.338Z,2.58
2023-03-29T18:56:50.462Z,2.72
2023-03-29T19:01:52.824Z,2.33
2023-03-29T19:06:56.063Z,2.97
2023-03-29T19:11:58.168Z,2.75
2023-03-29T19:17:00.405Z,4.17
2023-03-29T19:22:02.544Z,2.95
2023-03-29T19:27:04.998Z,3.12
2023-03-29T19:32:07.108Z,5.37
2023-03-29T19:37:09.315Z,3.83
2023-03-29T19:42:11.554Z,3.85
2023-03-29T19:47:13.667Z,3.55
2023-03-29T19:52:15.772Z,3.03
2023-03-29T19:57:17.941Z,5.32
2023-03-29T20:02:20.080Z,2.83
2023-03-29T20:07:22.122Z,3.93
2023-03-29T20:12:24.232Z,3.60
2023-03-29T20:17:26.427Z,3.72
2023-03-29T20:22:31.156Z,4.73
2023-03-29T20:27:34.130Z,3.20
2023-03-29T20:32:36.736Z,4.15
2023-03-29T20:37:38.886Z,3.08
